createdAt,value
2023-01-01T00:01:15.584Z,100165.16
2023-01-01T00:04:34.675Z,100163.10
2023-01-01T00:07:38.602Z,100162.52
2023-01-01T00:10:42.501Z,100174.00
2023-01-01T00:13:46.502Z,100180.60
2023-01-01T00:16:50.578Z,100183.63
2023-01-01T00:19:54.606Z,100179.69
2023-01-01T00:22:58.540Z,100166.21
2023-01-01T00:26:13.109Z,100157.25
2023-01-01T00:29:16.992Z,100151.30
2023-01-01T00:32:23.059Z,100157.50
2023-01-01T00:35:27.788Z,100160.29
2023-01-01T00:38:33.371Z,100161.33
2023-01-01T00:41:37.381Z,100166.09
2023-01-01T00:44:41.283Z,100166.93
2023-01-01T00:47:45.216Z,100157.02
2023-01-01T00:50:50.323Z,100150.77
2023-01-01T00:53:54.249Z,100160.23
2023-01-01T00:56:58.277Z,100174.42
2023-01-01T01:00:02.297Z,100175.48
2023-01-01T01:03:06.837Z,100166.87
2023-01-01T01:06:15.577Z,100167.48
2023-01-01T01:09:19.564Z,100163.84
2023-01-01T01:12:23.585Z,100160.24
2023-01-01T01:15:27.517Z,100171.33
2023-01-01T01:18:31.510Z,100178.20
2023-01-01T01:21:35.547Z,100185.54
2023-01-01T01:24:39.490Z,100179.90
2023-01-01T01:27:43.464Z,100174.31
2023-01-01T01:30:47.408Z,100177.29
2023-01-01T01:33:51.799Z,100174.38
2023-01-01T01:36:56.290Z,100172.80
2023-01-01T01:40:00.168Z,100165.52
2023-01-01T01:43:04.254Z,100164.73
2023-01-01T01:46:20.461Z,100172.92
2023-01-01T01:49:30.584Z,100184.46
2023-01-01T01:52:37.143Z,100181.38
2023-01-01T01:55:47.435Z,100178.13
2023-01-01T01:58:51.648Z,100183.80
2023-01-01T02:02:00.725Z,100178.34
2023-01-01T02:05:06.231Z,100179.55
2023-01-01T02:08:14.780Z,100186.70
2023-01-01T02:11:21.953Z,100182.26
2023-01-01T02:14:26.232Z,100166.14
2023-01-01T02:18:03.694Z,100164.80
2023-01-01T02:21:33.203Z,100177.48
2023-01-01T02:24:52.576Z,100177.80
2023-01-01T02:28:19.909Z,100178.44
2023-01-01T02:31:31.618Z,100180.92
2023-01-01T02:34:41.200Z,100183.30
2023-01-01T02:37:45.366Z,100185.80
2023-01-01T02:40:54.906Z,100184.36
2023-01-01T02:47:17.211Z,100181.27
2023-01-01T02:50:25.533Z,100174.83
2023-01-01T02:53:36.305Z,100167.05
2023-01-01T02:56:46.270Z,100167.30
2023-01-01T03:00:24.487Z,100168.76
2023-01-01T03:03:38.005Z,100171.06
2023-01-01T03:06:55.345Z,100174.44
2023-01-01T03:10:02.556Z,100172.66
2023-01-01T03:13:20.876Z,100174.15
2023-01-01T03:16:39.472Z,100169.81
2023-01-01T03:19:45.608Z,100168.85
2023-01-01T03:22:53.371Z,100161.67
2023-01-01T03:26:01.077Z,100155.38
2023-01-01T03:29:06.259Z,100157.41
2023-01-01T03:32:16.217Z,100163.37
2023-01-01T03:35:25.526Z,100166.73
2023-01-01T03:38:43.102Z,100161.82
2023-01-01T03:41:56.121Z,100168.39
2023-01-01T03:45:17.236Z,100173.91
2023-01-01T03:48:21.552Z,100182.95
2023-01-01T03:51:50.264Z,100180.55
2023-01-01T03:55:09.141Z,100179.91
2023-01-01T03:58:41.192Z,100189.83
2023-01-01T04:01:49.601Z,100191.27
2023-01-01T04:04:53.829Z,100191.50
2023-01-01T04:08:02.243Z,100190.80
2023-01-01T04:11:34.625Z,100191.61
2023-01-01T04:14:41.410Z,100189.20
2023-01-01T04:17:45.421Z,100192.47
2023-01-01T04:20:49.441Z,100196.44
2023-01-01T04:23:53.453Z,100193.80
2023-01-01T04:26:58.478Z,100197.95
2023-01-01T04:30:03.375Z,100198.88
2023-01-01T04:33:07.284Z,100204.07
2023-01-01T04:36:11.364Z,100210.92
2023-01-01T04:39:15.354Z,100215.30
2023-01-01T04:42:19.890Z,100224.66
2023-01-01T04:45:23.767Z,100223.74
2023-01-01T04:48:29.367Z,100224.33
2023-01-01T04:51:33.388Z,100224.50
2023-01-01T04:54:37.889Z,100226.59
2023-01-01T04:57:42.531Z,100220.00
2023-01-01T05:00:50.756Z,100222.08
2023-01-01T05:03:56.052Z,100232.73
2023-01-01T05:07:00.218Z,100231.91
2023-01-01T05:10:05.016Z,100237.11
2023-01-01T05:13:09.565Z,100234.71
2023-01-01T05:16:17.063Z,100235.86
2023-01-01T05:19:21.283Z,100231.70
2023-01-01T05:22:25.172Z,100236.56
2023-01-01T05:25:29.127Z,100232.52
2023-01-01T05:28:33.012Z,100235.95
2023-01-01T05:31:37.032Z,100232.67
2023-01-01T05:34:41.483Z,100238.80
2023-01-01T05:37:45.366Z,100236.59
2023-01-01T05:40:49.420Z,100236.92
2023-01-01T05:43:53.709Z,100243.27
2023-01-01T05:46:58.161Z,100238.58
2023-01-01T05:53:05.739Z,100249.70
2023-01-01T05:56:09.660Z,100257.33
2023-01-01T05:59:13.814Z,100262.90
2023-01-01T06:02:18.499Z,100266.70
2023-01-01T06:05:23.134Z,100265.90
2023-01-01T06:08:27.193Z,100271.39
2023-01-01T06:11:32.492Z,100276.59
2023-01-01T06:14:36.878Z,100277.65
2023-01-01T06:17:40.760Z,100280.92
2023-01-01T06:20:44.683Z,100289.52
2023-01-01T06:23:49.072Z,100286.20
2023-01-01T06:26:53.022Z,100289.92
2023-01-01T06:29:57.859Z,100299.23
2023-01-01T06:33:01.843Z,100298.84
2023-01-01T06:36:09.076Z,100298.60
2023-01-01T06:39:13.092Z,100299.56
2023-01-01T06:42:17.303Z,100301.84
2023-01-01T06:45:21.329Z,100304.43
2023-01-01T06:48:25.224Z,100306.68
2023-01-01T06:51:36.525Z,100311.55
2023-01-01T06:54:40.464Z,100304.88
2023-01-01T06:57:44.381Z,100308.30
2023-01-01T07:00:48.360Z,100304.98
2023-01-01T07:03:54.720Z,100312.30
2023-01-01T07:06:58.603Z,100316.68
2023-01-01T07:10:02.613Z,100315.29
2023-01-01T07:13:06.685Z,100316.21
2023-01-01T07:16:13.429Z,100313.91
2023-01-01T07:19:17.730Z,100315.20
2023-01-01T07:22:21.620Z,100316.99
2023-01-01T07:25:25.535Z,100325.16
2023-01-01T07:28:29.457Z,100318.34
2023-01-01T07:31:33.802Z,100321.77
2023-01-01T07:34:37.784Z,100323.38
2023-01-01T07:37:41.861Z,100331.36
2023-01-01T07:40:45.997Z,100343.71
2023-01-01T07:43:50.053Z,100346.05
2023-01-01T07:47:04.844Z,100349.94
2023-01-01T07:50:16.877Z,100364.10
2023-01-01T07:53:20.906Z,100368.94
2023-01-01T07:56:24.972Z,100362.38
2023-01-01T07:59:28.917Z,100366.37
2023-01-01T08:02:33.319Z,100368.13
2023-01-01T08:05:38.978Z,100370.37
2023-01-01T08:08:43.126Z,100367.27
2023-01-01T08:11:47.331Z,100379.95
2023-01-01T08:14:51.415Z,100381.92
2023-01-01T08:17:59.997Z,100382.19
2023-01-01T08:21:05.230Z,100389.34
2023-01-01T08:24:09.351Z,100383.80
2023-01-01T08:27:14.498Z,100380.35
2023-01-01T08:30:18.712Z,100386.22
2023-01-01T08:33:23.220Z,100387.65
2023-01-01T08:36:29.068Z,100393.01
2023-01-01T08:39:33.320Z,100389.64
2023-01-01T08:42:37.247Z,100395.00
2023-01-01T08:45:41.180Z,100395.59
2023-01-01T08:48:45.148Z,100402.60
2023-01-01T08:51:49.044Z,100408.66
2023-01-01T08:54:53.090Z,100410.54
2023-01-01T08:57:57.064Z,100409.89
2023-01-01T09:01:01.575Z,100414.84
2023-01-01T09:04:13.584Z,100422.44
2023-01-01T09:07:19.446Z,100425.87
2023-01-01T09:10:23.362Z,100422.52
2023-01-01T09:13:28.152Z,100422.30
2023-01-01T09:16:32.203Z,100426.41
2023-01-01T09:19:36.279Z,100425.42
2023-01-01T09:22:40.394Z,100433.72
2023-01-01T09:25:44.305Z,100431.08
2023-01-01T09:28:48.331Z,100424.24
2023-01-01T09:31:52.399Z,100428.45
2023-01-01T09:34:57.381Z,100426.45
2023-01-01T09:38:01.390Z,100425.59
2023-01-01T09:41:22.271Z,100431.95
2023-01-01T09:44:44.774Z,100429.45
2023-01-01T09:48:04.133Z,100436.21
2023-01-01T09:51:15.696Z,100431.64
2023-01-01T09:54:30.093Z,100430.13
2023-01-01T09:57:34.040Z,100424.97
2023-01-01T10:00:42.447Z,100419.20
2023-01-01T10:03:56.441Z,100427.34
2023-01-01T10:07:06.727Z,100428.70
2023-01-01T10:10:31.839Z,100424.54
2023-01-01T10:13:44.046Z,100428.91
2023-01-01T10:16:53.389Z,100423.33
2023-01-01T10:20:01.890Z,100416.09
2023-01-01T10:23:19.769Z,100420.01
2023-01-01T10:26:27.206Z,100422.66
2023-01-01T10:29:40.761Z,100423.08
2023-01-01T10:32:48.195Z,100413.06
2023-01-01T10:35:56.927Z,100407.91
2023-01-01T10:39:00.887Z,100408.04
2023-01-01T10:42:05.039Z,100406.63
2023-01-01T10:45:15.482Z,100396.26
2023-01-01T10:48:27.106Z,100392.28
2023-01-01T10:51:31.120Z,100395.08
2023-01-01T10:54:39.000Z,100394.98
2023-01-01T10:57:42.907Z,100389.69
2023-01-01T11:00:58.482Z,100386.40
2023-01-01T11:04:05.352Z,100387.84
2023-01-01T11:07:09.500Z,100380.44
2023-01-01T11:10:25.838Z,100376.30
2023-01-01T11:13:31.384Z,100382.02
2023-01-01T11:16:39.934Z,100380.82
2023-01-01T11:19:52.680Z,100380.31
2023-01-01T11:22:58.585Z,100379.73
2023-01-01T11:26:17.957Z,100375.98
2023-01-01T11:29:29.368Z,100378.41
2023-01-01T11:32:36.750Z,100373.02
2023-01-01T11:35:55.305Z,100378.41
2023-01-01T11:39:18.213Z,100372.06
2023-01-01T11:42:34.770Z,100372.26
2023-01-01T11:45:42.283Z,100374.19
2023-01-01T11:48:46.590Z,100376.10
2023-01-01T11:51:50.713Z,100372.66
2023-01-01T11:55:03.828Z,100376.23
2023-01-01T11:58:29.821Z,100377.84
2023-01-01T12:01:40.889Z,100377.52
2023-01-01T12:04:53.772Z,100374.77
2023-01-01T12:07:59.797Z,100377.70
2023-01-01T12:11:15.425Z,100371.98
2023-01-01T12:14:35.209Z,100365.63
2023-01-01T12:17:53.973Z,100366.75
2023-01-01T12:21:06.077Z,100368.02
2023-01-01T12:24:12.398Z,100367.65
2023-01-01T12:27:33.878Z,100366.34
2023-01-01T12:30:51.930Z,100374.57
2023-01-01T12:34:05.547Z,100374.34
2023-01-01T12:37:34.527Z,100375.41
2023-01-01T12:40:57.942Z,100383.91
2023-01-01T12:44:35.597Z,100382.95
2023-01-01T12:47:55.480Z,100387.19
2023-01-01T12:51:31.059Z,100396.11
2023-01-01T12:55:02.806Z,100393.09
2023-01-01T12:58:16.806Z,100405.52
2023-01-01T13:01:28.457Z,100411.19
2023-01-01T13:04:36.800Z,100412.52
2023-01-01T13:07:45.634Z,100414.96
2023-01-01T13:10:53.096Z,100415.82
2023-01-01T13:13:57.150Z,100418.17
2023-01-01T13:17:01.180Z,100421.27
2023-01-01T13:20:14.352Z,100419.16
2023-01-01T13:23:34.726Z,100419.70
2023-01-01T13:26:40.667Z,100416.66
2023-01-01T13:29:45.390Z,100416.34
2023-01-01T13:33:10.845Z,100418.90
2023-01-01T13:36:20.659Z,100415.45
2023-01-01T13:40:01.546Z,100412.93
2023-01-01T13:43:16.112Z,100401.59
2023-01-01T13:46:31.149Z,100414.70
2023-01-01T13:49:55.468Z,100420.77
2023-01-01T13:53:50.889Z,100421.44
2023-01-01T13:57:00.399Z,100415.50
2023-01-01T14:00:07.137Z,100424.02
2023-01-01T14:03:18.825Z,100442.23
2023-01-01T14:06:32.508Z,100446.29
2023-01-01T14:09:36.772Z,100439.10
2023-01-01T14:12:40.791Z,100444.72
2023-01-01T14:15:58.771Z,100447.29
2023-01-01T14:19:03.609Z,100461.63
2023-01-01T14:22:10.140Z,100483.17
2023-01-01T14:25:16.848Z,100488.76
2023-01-01T14:28:26.120Z,100494.30
2023-01-01T14:31:34.496Z,100498.63
2023-01-01T14:34:38.563Z,100506.22
2023-01-01T14:37:43.176Z,100507.80
2023-01-01T14:40:47.180Z,100519.89
2023-01-01T14:43:53.984Z,100524.73
2023-01-01T14:46:58.137Z,100521.96
2023-01-01T14:50:11.551Z,100524.01
2023-01-01T14:53:20.605Z,100516.71
2023-01-01T14:56:35.760Z,100520.62
2023-01-01T14:59:47.886Z,100530.77
2023-01-01T15:02:52.016Z,100543.72
2023-01-01T15:06:01.918Z,100549.88
2023-01-01T15:09:06.906Z,100556.09
2023-01-01T15:12:13.876Z,100558.09
2023-01-01T15:15:38.183Z,100551.02
2023-01-01T15:18:42.980Z,100539.19
2023-01-01T15:21:46.983Z,100522.00
2023-01-01T15:24:51.352Z,100515.06
2023-01-01T15:27:58.237Z,100504.61
2023-01-01T15:31:02.359Z,100511.84
2023-01-01T15:34:06.703Z,100524.12
2023-01-01T15:37:32.538Z,100527.33
2023-01-01T15:40:36.644Z,100522.83
2023-01-01T15:43:41.356Z,100517.74
2023-01-01T15:46:48.157Z,100517.95
2023-01-01T15:50:32.374Z,100527.09
2023-01-01T15:54:15.585Z,100530.51
2023-01-01T15:57:22.848Z,100540.41
2023-01-01T16:00:35.187Z,100549.53
2023-01-01T16:03:41.264Z,100558.85
2023-01-01T16:06:48.238Z,100561.19
2023-01-01T16:09:57.686Z,100571.80
2023-01-01T16:13:02.414Z,100569.04
2023-01-01T16:16:26.422Z,100575.91
2023-01-01T16:19:32.508Z,100589.11
2023-01-01T16:22:36.903Z,100595.20
2023-01-01T16:25:41.050Z,100600.85
2023-01-01T16:28:45.066Z,100604.38
2023-01-01T16:31:51.253Z,100605.54
2023-01-01T16:34:55.197Z,100605.85
2023-01-01T16:37:59.160Z,100603.87
2023-01-01T16:41:03.199Z,100599.47
2023-01-01T16:44:07.150Z,100615.52
2023-01-01T16:47:11.107Z,100617.06
2023-01-01T16:50:15.811Z,100632.91
2023-01-01T16:53:19.738Z,100646.09
2023-01-01T16:56:23.765Z,100647.77
2023-01-01T16:59:27.871Z,100651.36
2023-01-01T17:02:31.994Z,100648.30
2023-01-01T17:05:43.654Z,100641.48
2023-01-01T17:08:48.331Z,100647.17
2023-01-01T17:11:52.239Z,100651.08
2023-01-01T17:14:56.222Z,100656.55
2023-01-01T17:18:00.352Z,100654.33
2023-01-01T17:21:09.921Z,100649.36
2023-01-01T17:24:15.859Z,100643.06
2023-01-01T17:27:19.790Z,100640.09
2023-01-01T17:30:23.728Z,100638.79
2023-01-01T17:33:28.788Z,100638.63
2023-01-01T17:36:32.811Z,100639.79
2023-01-01T17:39:36.749Z,100641.03
2023-01-01T17:42:40.650Z,100636.42
2023-01-01T17:45:44.813Z,100638.44
2023-01-01T17:48:49.963Z,100644.60
2023-01-01T17:51:53.882Z,100646.31
2023-01-01T17:54:58.813Z,100654.61
2023-01-01T17:58:02.747Z,100662.27
2023-01-01T18:01:22.191Z,100671.13
2023-01-01T18:04:26.435Z,100660.85
2023-01-01T18:07:30.587Z,100663.41
2023-01-01T18:10:35.068Z,100672.77
2023-01-01T18:13:39.094Z,100668.42
2023-01-01T18:16:45.359Z,100674.64
2023-01-01T18:19:49.368Z,100683.80
2023-01-01T18:22:53.682Z,100686.59
2023-01-01T18:26:00.972Z,100683.23
2023-01-01T18:29:05.009Z,100689.66
2023-01-01T18:32:08.960Z,100694.20
2023-01-01T18:35:12.913Z,100695.08
2023-01-01T18:38:19.190Z,100701.54
2023-01-01T18:41:32.218Z,100712.52
2023-01-01T18:44:36.546Z,100721.56
2023-01-01T18:47:40.538Z,100722.77
2023-01-01T18:50:44.437Z,100725.63
2023-01-01T18:53:54.732Z,100720.95
2023-01-01T18:57:07.979Z,100720.22
2023-01-01T19:00:18.854Z,100721.23
2023-01-01T19:03:28.342Z,100724.83
2023-01-01T19:06:33.813Z,100737.31
2023-01-01T19:09:38.366Z,100739.20
2023-01-01T19:12:43.394Z,100744.10
2023-01-01T19:15:48.857Z,100744.99
2023-01-01T19:18:53.655Z,100752.73
2023-01-01T19:22:08.559Z,100752.50
2023-01-01T19:25:36.640Z,100758.14
2023-01-01T19:28:52.226Z,100763.13
2023-01-01T19:31:58.429Z,100766.98
2023-01-01T19:35:02.386Z,100772.45
2023-01-01T19:38:06.424Z,100774.02
2023-01-01T19:41:11.277Z,100780.61
2023-01-01T19:44:18.614Z,100785.69
2023-01-01T19:47:27.094Z,100786.05
2023-01-01T19:50:31.095Z,100792.58
2023-01-01T19:53:35.217Z,100791.41
2023-01-01T19:56:39.609Z,100795.90
2023-01-01T19:59:43.517Z,100804.96
2023-01-01T20:02:48.317Z,100804.06
2023-01-01T20:05:52.779Z,100807.93
2023-01-01T20:08:56.725Z,100811.63
2023-01-01T20:12:00.669Z,100812.66
2023-01-01T20:15:06.027Z,100814.48
2023-01-01T20:18:09.997Z,100819.17
2023-01-01T20:21:32.550Z,100818.86
2023-01-01T20:24:37.328Z,100819.22
2023-01-01T20:28:00.154Z,100817.37
2023-01-01T20:31:04.256Z,100813.31
2023-01-01T20:34:08.369Z,100813.11
2023-01-01T20:37:31.105Z,100819.11
2023-01-01T20:40:35.235Z,100812.11
2023-01-01T20:43:39.173Z,100812.77
2023-01-01T20:46:44.607Z,100814.91
2023-01-01T20:49:48.836Z,100815.91
2023-01-01T20:52:52.947Z,100817.23
2023-01-01T20:55:56.879Z,100816.42
2023-01-01T20:59:24.380Z,100825.08
2023-01-01T21:02:26.152Z,100822.08
2023-01-01T21:05:30.321Z,100826.10
2023-01-01T21:08:34.218Z,100831.08
2023-01-01T21:11:38.344Z,100831.69
2023-01-01T21:14:42.725Z,100825.48
2023-01-01T21:17:46.790Z,100834.69
2023-01-01T21:20:50.763Z,100835.21
2023-01-01T21:24:01.272Z,100845.61
2023-01-01T21:27:08.194Z,100850.08
2023-01-01T21:30:13.403Z,100857.77
2023-01-01T21:33:27.103Z,100858.11
2023-01-01T21:36:31.155Z,100857.31
2023-01-01T21:39:35.168Z,100857.44
2023-01-01T21:42:39.071Z,100859.97
2023-01-01T21:45:46.208Z,100861.50
2023-01-01T21:48:57.157Z,100868.66
2023-01-01T21:52:02.279Z,100871.05
2023-01-01T21:55:23.581Z,100868.09
2023-01-01T21:58:53.551Z,100870.87
2023-01-01T22:02:35.107Z,100875.40
2023-01-01T22:05:42.669Z,100871.77
2023-01-01T22:08:47.354Z,100872.88
2023-01-01T22:11:53.247Z,100869.89
2023-01-01T22:15:06.421Z,100872.87
2023-01-01T22:18:24.335Z,100874.89
2023-01-01T22:21:31.160Z,100875.64
2023-01-01T22:24:36.511Z,100873.52
2023-01-01T22:27:40.743Z,100873.05
2023-01-01T22:30:44.791Z,100869.48
2023-01-01T22:33:49.682Z,100872.09
2023-01-01T22:36:53.921Z,100864.87
2023-01-01T22:40:00.778Z,100863.08
2023-01-01T22:43:17.208Z,100864.41
2023-01-01T22:46:37.902Z,100866.44
2023-01-01T22:49:46.966Z,100865.30
2023-01-01T22:52:51.274Z,100861.30
2023-01-01T22:55:55.167Z,100867.46
2023-01-01T22:58:59.072Z,100868.42
2023-01-01T23:02:03.647Z,100870.46
2023-01-01T23:05:07.778Z,100874.84
2023-01-01T23:08:11.657Z,100871.52
2023-01-01T23:11:15.878Z,100866.88
2023-01-01T23:14:39.372Z,100865.64
2023-01-01T23:17:43.569Z,100865.85
2023-01-01T23:20:47.585Z,100869.02
2023-01-01T23:23:52.975Z,100870.73
2023-01-01T23:26:58.174Z,100871.55
2023-01-01T23:30:03.531Z,100869.86
2023-01-01T23:33:07.504Z,100871.86
2023-01-01T23:36:11.836Z,100873.55
2023-01-01T23:39:15.719Z,100872.00
2023-01-01T23:42:19.628Z,100867.98
2023-01-01T23:45:23.578Z,100862.73
2023-01-01T23:48:28.729Z,100863.48
2023-01-01T23:51:34.072Z,100863.87
2023-01-01T23:54:39.137Z,100865.98
2023-01-01T23:57:43.111Z,100864.35
